createdAt,value
2022-08-16T00:00:20.454Z,5.90
2022-08-16T00:02:50.539Z,5.78
2022-08-16T00:05:22.807Z,5.72
2022-08-16T00:07:56.213Z,5.75
2022-08-16T00:10:28.815Z,5.97
2022-08-16T00:12:57.814Z,6.30
2022-08-16T00:15:51.793Z,6.75
2022-08-16T00:18:26.095Z,6.10
2022-08-16T00:21:00.141Z,5.82
2022-08-16T00:23:34.546Z,6.70
2022-08-16T00:26:34.592Z,6.85
2022-08-16T00:28:57.227Z,7.00
2022-08-16T00:31:27.509Z,6.63
2022-08-16T00:34:18.392Z,7.03
2022-08-16T00:36:48.276Z,6.88
2022-08-16T00:39:23.998Z,6.90
2022-08-16T00:41:52.805Z,6.60
2022-08-16T00:44:23.230Z,6.80
2022-08-16T00:47:06.777Z,7.00
2022-08-16T00:49:39.390Z,6.47
2022-08-16T00:52:29.267Z,6.75
2022-08-16T00:54:59.056Z,6.68
2022-08-16T00:57:58.912Z,6.35
2022-08-16T01:00:20.350Z,7.07
2022-08-16T01:02:53.388Z,6.43
2022-08-16T01:05:23.966Z,7.05
2022-08-16T01:07:55.361Z,7.13
2022-08-16T01:10:32.759Z,6.63
2022-08-16T01:13:06.320Z,7.60
2022-08-16T01:15:37.179Z,7.65
2022-08-16T01:18:39.860Z,7.00
2022-08-16T01:21:22.784Z,7.85
2022-08-16T01:24:04.838Z,7.63
2022-08-16T01:26:56.224Z,7.20
2022-08-16T01:29:58.389Z,6.95
2022-08-16T01:32:33.282Z,7.32
2022-08-16T01:35:03.089Z,6.90
2022-08-16T01:37:38.627Z,7.60
2022-08-16T01:40:09.807Z,7.38
2022-08-16T01:42:47.912Z,9.48
2022-08-16T01:45:19.778Z,9.13
2022-08-16T01:47:50.983Z,9.73
2022-08-16T01:51:05.008Z,9.43
2022-08-16T01:53:11.890Z,10.23
2022-08-16T01:55:44.179Z,9.63
2022-08-16T01:58:24.806Z,10.43
2022-08-16T02:00:53.013Z,9.60
2022-08-16T02:03:24.318Z,8.98
2022-08-16T02:05:52.730Z,9.23
2022-08-16T02:08:33.914Z,9.30
2022-08-16T02:11:06.317Z,8.73
2022-08-16T02:13:35.704Z,10.65
2022-08-16T02:16:18.737Z,9.88
2022-08-16T02:18:47.834Z,10.57
2022-08-16T02:21:16.692Z,10.60
2022-08-16T02:23:44.845Z,10.43
2022-08-16T02:26:18.935Z,10.05
2022-08-16T02:28:47.957Z,9.48
2022-08-16T02:31:22.442Z,9.70
2022-08-16T02:34:10.576Z,9.88
2022-08-16T02:36:47.941Z,10.43
2022-08-16T02:39:19.369Z,9.63
2022-08-16T02:41:53.857Z,9.80
2022-08-16T02:44:22.644Z,10.02
2022-08-16T02:46:54.998Z,9.82
2022-08-16T02:49:58.684Z,10.25
2022-08-16T02:52:24.461Z,10.35
2022-08-16T02:54:55.431Z,10.70
2022-08-16T02:57:25.118Z,10.77
2022-08-16T02:59:53.572Z,10.20
2022-08-16T03:02:31.969Z,10.13
2022-08-16T03:05:00.452Z,10.65
2022-08-16T03:07:29.974Z,11.50
2022-08-16T03:10:07.143Z,10.38
2022-08-16T03:12:37.944Z,10.25
2022-08-16T03:15:24.044Z,10.88
2022-08-16T03:17:54.300Z,10.85
2022-08-16T03:20:32.118Z,10.98
2022-08-16T03:23:01.936Z,11.52
2022-08-16T03:25:41.104Z,11.07
2022-08-16T03:28:17.165Z,11.20
2022-08-16T03:30:45.957Z,12.10
2022-08-16T03:33:15.857Z,12.02
2022-08-16T03:35:44.962Z,11.45
2022-08-16T03:38:33.498Z,12.20
2022-08-16T03:41:04.163Z,11.73
2022-08-16T03:43:51.667Z,11.85
2022-08-16T03:46:44.845Z,12.07
2022-08-16T03:49:12.473Z,12.70
2022-08-16T03:51:42.076Z,11.95
2022-08-16T03:54:12.230Z,12.07
2022-08-16T03:56:56.761Z,11.80
2022-08-16T03:59:29.329Z,12.77
2022-08-16T04:01:58.314Z,12.20
2022-08-16T04:04:33.215Z,11.38
2022-08-16T04:07:02.777Z,12.10
2022-08-16T04:09:35.678Z,11.30
2022-08-16T04:12:10.696Z,12.18
2022-08-16T04:14:55.948Z,11.90
2022-08-16T04:17:26.972Z,12.85
2022-08-16T04:19:58.263Z,11.80
2022-08-16T04:22:28.269Z,12.15
2022-08-16T04:24:59.481Z,13.00
2022-08-16T04:27:31.490Z,13.02
2022-08-16T04:30:03.013Z,14.37
2022-08-16T04:32:32.138Z,14.10
2022-08-16T04:35:06.341Z,15.35
2022-08-16T04:37:42.173Z,15.38
2022-08-16T04:40:20.600Z,14.85
2022-08-16T04:42:54.871Z,15.32
2022-08-16T04:45:36.167Z,14.73
2022-08-16T04:48:06.133Z,16.20
2022-08-16T04:50:34.343Z,14.82
2022-08-16T04:53:03.437Z,14.77
2022-08-16T04:55:38.308Z,15.45
2022-08-16T04:58:43.854Z,15.38
2022-08-16T05:00:57.394Z,15.15
2022-08-16T05:03:26.351Z,15.77
2022-08-16T05:05:59.228Z,16.92
2022-08-16T05:08:31.570Z,17.50
2022-08-16T05:11:03.664Z,18.00
2022-08-16T05:13:40.862Z,16.90
2022-08-16T05:16:20.000Z,17.35
2022-08-16T05:18:50.289Z,17.92
2022-08-16T05:21:21.414Z,18.63
2022-08-16T05:23:55.797Z,19.17
2022-08-16T05:26:28.079Z,19.83
2022-08-16T05:28:57.225Z,18.52
2022-08-16T05:31:29.732Z,20.42
2022-08-16T05:33:59.979Z,20.55
2022-08-16T05:36:34.401Z,21.65
2022-08-16T05:39:07.736Z,19.88
2022-08-16T05:41:45.092Z,20.25
2022-08-16T05:44:23.457Z,20.45
2022-08-16T05:47:00.395Z,21.77
2022-08-16T05:49:38.318Z,21.20
2022-08-16T05:52:11.790Z,20.67
2022-08-16T05:54:48.040Z,22.23
2022-08-16T05:57:34.491Z,21.20
2022-08-16T06:00:09.279Z,22.27
2022-08-16T06:02:39.860Z,22.45
2022-08-16T06:05:10.853Z,22.80
2022-08-16T06:07:39.583Z,22.55
2022-08-16T06:10:09.792Z,21.75
2022-08-16T06:12:38.479Z,22.55
2022-08-16T06:15:10.032Z,22.15
2022-08-16T06:17:43.126Z,20.10
2022-08-16T06:20:18.586Z,21.17
2022-08-16T06:22:57.511Z,21.77
2022-08-16T06:25:35.974Z,21.45
2022-08-16T06:28:09.827Z,22.02
2022-08-16T06:30:43.301Z,20.27
2022-08-16T06:33:19.495Z,21.77
2022-08-16T06:35:48.173Z,19.75
2022-08-16T06:38:33.399Z,21.02
2022-08-16T06:41:05.458Z,21.77
2022-08-16T06:43:35.531Z,20.90
2022-08-16T06:46:09.775Z,21.35
2022-08-16T06:48:43.565Z,20.77
2022-08-16T06:51:12.798Z,19.90
2022-08-16T06:53:43.069Z,19.38
2022-08-16T06:56:14.416Z,16.52
2022-08-16T06:58:52.667Z,16.63
2022-08-16T07:01:26.281Z,15.77
2022-08-16T07:04:12.031Z,15.77
2022-08-16T07:06:43.163Z,15.02
2022-08-16T07:09:13.110Z,15.63
2022-08-16T07:11:47.565Z,15.05
2022-08-16T07:14:25.572Z,13.60
2022-08-16T07:16:59.138Z,14.40
2022-08-16T07:20:01.616Z,14.52
2022-08-16T07:22:52.843Z,13.57
2022-08-16T07:25:12.003Z,14.00
2022-08-16T07:27:40.613Z,13.35
2022-08-16T07:30:39.194Z,11.65
2022-08-16T07:33:03.433Z,11.57
2022-08-16T07:35:34.008Z,12.00
2022-08-16T07:38:02.899Z,12.20
2022-08-16T07:40:59.677Z,11.80
2022-08-16T07:43:20.055Z,11.82
2022-08-16T07:45:52.923Z,11.40
2022-08-16T07:50:56.040Z,11.98
2022-08-16T07:53:29.097Z,11.32
2022-08-16T07:55:58.004Z,12.30
2022-08-16T07:58:35.036Z,11.95
2022-08-16T08:01:10.600Z,12.77
2022-08-16T08:03:42.577Z,12.40
2022-08-16T08:06:14.732Z,12.75
2022-08-16T08:08:50.819Z,13.25
2022-08-16T08:11:23.887Z,12.45
2022-08-16T08:13:53.731Z,12.75
2022-08-16T08:16:30.501Z,10.80
2022-08-16T08:19:00.946Z,12.40
2022-08-16T08:22:00.082Z,11.95
2022-08-16T08:24:31.792Z,13.05
2022-08-16T08:27:04.269Z,12.38
2022-08-16T08:29:37.352Z,11.50
2022-08-16T08:32:57.291Z,12.63
2022-08-16T08:35:03.348Z,11.20
2022-08-16T08:37:54.044Z,10.85
2022-08-16T08:40:24.256Z,11.07
2022-08-16T08:42:57.765Z,9.27
2022-08-16T08:45:48.789Z,9.57
2022-08-16T08:48:34.312Z,8.50
2022-08-16T08:51:04.408Z,8.18
2022-08-16T08:53:34.168Z,8.35
2022-08-16T08:56:23.381Z,8.35
2022-08-16T08:58:54.879Z,7.13
2022-08-16T09:01:31.912Z,7.63
2022-08-16T09:04:06.160Z,6.93
2022-08-16T09:06:35.109Z,6.70
2022-08-16T09:09:05.010Z,6.20
2022-08-16T09:11:40.788Z,6.40
2022-08-16T09:14:24.163Z,6.13
2022-08-16T09:17:02.444Z,5.25
2022-08-16T09:19:33.722Z,6.03
2022-08-16T09:22:03.273Z,5.32
2022-08-16T09:24:51.976Z,5.20
2022-08-16T09:27:23.487Z,5.57
2022-08-16T09:29:59.845Z,5.28
2022-08-16T09:32:30.580Z,4.75
2022-08-16T09:35:00.107Z,6.07
2022-08-16T09:37:36.516Z,5.95
2022-08-16T09:40:32.704Z,5.60
2022-08-16T09:42:59.296Z,4.65
2022-08-16T09:45:30.214Z,5.00
2022-08-16T09:47:59.396Z,5.50
2022-08-16T09:50:37.055Z,5.88
2022-08-16T09:53:15.174Z,5.20
2022-08-16T09:55:48.980Z,4.60
2022-08-16T09:58:41.461Z,5.10
2022-08-16T10:01:08.645Z,5.88
2022-08-16T10:04:01.987Z,5.35
2022-08-16T10:06:33.312Z,5.60
2022-08-16T10:09:06.015Z,5.10
2022-08-16T10:14:32.802Z,6.10
2022-08-16T10:17:03.737Z,5.70
2022-08-16T10:19:32.878Z,5.38
2022-08-16T10:22:05.449Z,5.25
2022-08-16T10:27:25.966Z,4.88
2022-08-16T10:30:00.536Z,5.53
2022-08-16T10:32:35.655Z,5.30
2022-08-16T10:35:08.712Z,5.07
2022-08-16T10:37:36.829Z,5.30
2022-08-16T10:40:28.537Z,4.53
2022-08-16T10:42:57.107Z,4.65
2022-08-16T10:45:25.905Z,5.00
2022-08-16T10:48:03.243Z,4.80
2022-08-16T10:50:33.490Z,5.00
2022-08-16T10:53:07.528Z,5.53
2022-08-16T10:55:40.656Z,5.32
2022-08-16T10:58:17.491Z,4.57
2022-08-16T11:00:46.796Z,4.72
2022-08-16T11:06:06.140Z,5.10
2022-08-16T11:08:36.081Z,4.78
2022-08-16T11:11:11.766Z,4.85
2022-08-16T11:13:58.740Z,4.75
2022-08-16T11:17:02.961Z,4.25
2022-08-16T11:19:16.823Z,5.18
2022-08-16T11:24:43.421Z,4.10
2022-08-16T11:27:20.451Z,4.60
2022-08-16T11:29:52.982Z,4.85
2022-08-16T11:32:28.380Z,4.43
2022-08-16T11:35:15.523Z,4.50
2022-08-16T11:40:38.721Z,4.65
2022-08-16T11:43:07.707Z,5.50
2022-08-16T11:45:42.345Z,4.60
2022-08-16T11:50:38.821Z,4.20
2022-08-16T11:53:08.205Z,4.68
2022-08-16T11:55:38.524Z,4.03
2022-08-16T11:58:08.773Z,4.45
2022-08-16T12:00:51.638Z,4.90
2022-08-16T12:03:31.600Z,4.40
2022-08-16T12:06:11.020Z,4.40
2022-08-16T12:08:42.636Z,5.22
2022-08-16T12:11:11.195Z,4.28
2022-08-16T12:13:40.928Z,4.40
2022-08-16T12:16:11.495Z,4.07
2022-08-16T12:21:19.077Z,4.53
2022-08-16T12:23:47.673Z,3.97
2022-08-16T12:26:17.282Z,5.13
2022-08-16T12:28:56.183Z,4.30
2022-08-16T12:31:26.436Z,4.40
2022-08-16T12:33:57.484Z,4.50
2022-08-16T12:36:30.131Z,4.97
2022-08-16T12:38:59.275Z,5.03
2022-08-16T12:41:27.388Z,5.65
2022-08-16T12:43:57.239Z,5.43
2022-08-16T12:46:31.262Z,5.32
2022-08-16T12:48:59.611Z,5.90
2022-08-16T12:51:59.490Z,6.13
2022-08-16T12:54:21.220Z,6.35
2022-08-16T12:56:50.435Z,6.07
2022-08-16T12:59:20.372Z,5.88
2022-08-16T13:01:58.223Z,5.80
2022-08-16T13:04:31.331Z,6.88
2022-08-16T13:09:42.210Z,6.90
2022-08-16T13:12:20.036Z,7.18
2022-08-16T13:14:50.000Z,7.13
2022-08-16T13:17:23.280Z,7.35
2022-08-16T13:20:07.201Z,7.60
2022-08-16T13:22:37.437Z,7.35
2022-08-16T13:25:08.860Z,6.90
2022-08-16T13:28:01.816Z,6.37
2022-08-16T13:30:37.111Z,7.32
2022-08-16T13:33:12.624Z,6.18
2022-08-16T13:35:43.471Z,6.63
2022-08-16T13:38:25.204Z,6.38
2022-08-16T13:40:56.020Z,7.05
2022-08-16T13:43:26.624Z,7.15
2022-08-16T13:45:55.966Z,6.82
2022-08-16T13:48:26.165Z,7.95
2022-08-16T13:50:55.046Z,7.03
2022-08-16T13:53:24.895Z,7.05
2022-08-16T13:55:58.497Z,7.35
2022-08-16T13:58:36.533Z,8.13
2022-08-16T14:01:10.008Z,9.13
2022-08-16T14:03:40.598Z,8.63
2022-08-16T14:06:11.014Z,7.18
2022-08-16T14:08:42.432Z,6.47
2022-08-16T14:11:12.848Z,6.05
2022-08-16T14:13:43.801Z,6.82
2022-08-16T14:16:24.426Z,7.57
2022-08-16T14:19:02.910Z,7.13
2022-08-16T14:21:34.960Z,6.75
2022-08-16T14:26:50.738Z,6.60
2022-08-16T14:29:21.687Z,6.60
2022-08-16T14:31:53.879Z,6.15
2022-08-16T14:36:57.479Z,6.28
2022-08-16T14:39:27.930Z,5.55
2022-08-16T14:41:56.176Z,5.53
2022-08-16T14:44:26.289Z,5.03
2022-08-16T14:46:56.757Z,6.18
2022-08-16T14:49:26.407Z,4.88
2022-08-16T14:51:54.894Z,5.05
2022-08-16T14:54:27.249Z,4.43
2022-08-16T14:56:58.739Z,5.47
2022-08-16T14:59:27.180Z,5.40
2022-08-16T15:02:00.724Z,4.40
2022-08-16T15:04:39.518Z,5.18
2022-08-16T15:07:12.699Z,5.03
2022-08-16T15:09:43.878Z,5.07
2022-08-16T15:12:31.285Z,5.05
2022-08-16T15:15:04.390Z,4.80
2022-08-16T15:17:40.735Z,5.05
2022-08-16T15:20:12.965Z,4.55
2022-08-16T15:22:47.836Z,4.82
2022-08-16T15:25:20.477Z,4.50
2022-08-16T15:27:55.375Z,4.88
2022-08-16T15:30:58.375Z,4.75
2022-08-16T15:33:17.448Z,4.65
2022-08-16T15:35:50.180Z,4.45
2022-08-16T15:38:56.865Z,4.10
2022-08-16T15:41:07.520Z,4.10
2022-08-16T15:43:39.852Z,4.47
2022-08-16T15:46:35.705Z,4.13
2022-08-16T15:49:12.434Z,4.45
2022-08-16T15:51:43.521Z,4.53
2022-08-16T15:54:21.229Z,4.95
2022-08-16T15:57:00.338Z,4.32
2022-08-16T15:59:34.707Z,3.92
2022-08-16T16:02:27.226Z,3.92
2022-08-16T16:04:55.994Z,3.83
2022-08-16T16:07:25.378Z,3.42
2022-08-16T16:09:53.487Z,3.80
2022-08-16T16:12:51.043Z,3.80
2022-08-16T16:15:09.919Z,4.15
2022-08-16T16:17:37.895Z,3.65
2022-08-16T16:20:08.080Z,3.80
2022-08-16T16:22:44.612Z,3.45
2022-08-16T16:25:18.957Z,3.85
2022-08-16T16:27:59.218Z,3.85
2022-08-16T16:30:38.077Z,3.60
2022-08-16T16:33:15.769Z,3.50
2022-08-16T16:35:55.417Z,4.15
2022-08-16T16:38:30.663Z,4.65
2022-08-16T16:41:00.012Z,4.18
2022-08-16T16:43:31.394Z,4.20
2022-08-16T16:46:00.437Z,4.33
2022-08-16T16:48:35.064Z,4.30
2022-08-16T16:51:09.437Z,4.50
2022-08-16T16:53:42.189Z,5.07
2022-08-16T16:56:19.897Z,4.55
2022-08-16T16:59:01.266Z,4.95
2022-08-16T17:01:56.699Z,4.95
2022-08-16T17:04:31.356Z,5.60
2022-08-16T17:07:02.096Z,6.82
2022-08-16T17:09:32.302Z,6.75
2022-08-16T17:12:07.734Z,6.97
2022-08-16T17:14:38.673Z,6.70
2022-08-16T17:17:13.124Z,6.65
2022-08-16T17:19:41.873Z,6.90
2022-08-16T17:22:14.497Z,6.57
2022-08-16T17:27:37.467Z,6.38
2022-08-16T17:30:15.805Z,5.80
2022-08-16T17:32:48.702Z,5.88
2022-08-16T17:35:24.248Z,6.15
2022-08-16T17:38:04.749Z,5.90
2022-08-16T17:39:28.037Z,6.63
2022-08-16T17:40:47.813Z,6.05
2022-08-16T17:43:27.232Z,5.85
2022-08-16T17:45:56.248Z,5.30
2022-08-16T17:48:24.861Z,5.50
2022-08-16T17:50:54.700Z,5.55
2022-08-16T17:53:23.511Z,5.43
2022-08-16T17:55:54.555Z,6.00
2022-08-16T17:58:24.467Z,5.10
2022-08-16T18:00:55.916Z,4.90
2022-08-16T18:04:03.183Z,5.30
2022-08-16T18:06:17.790Z,5.15
2022-08-16T18:08:48.650Z,5.03
2022-08-16T18:11:25.668Z,4.93
2022-08-16T18:13:55.822Z,5.72
2022-08-16T18:16:23.885Z,5.47
2022-08-16T18:18:52.064Z,5.93
2022-08-16T18:21:37.398Z,5.30
2022-08-16T18:24:06.039Z,5.72
2022-08-16T18:26:36.176Z,6.43
2022-08-16T18:29:04.985Z,6.68
2022-08-16T18:31:33.100Z,7.30
2022-08-16T18:34:05.348Z,7.93
2022-08-16T18:36:34.699Z,5.90
2022-08-16T18:39:02.768Z,6.07
2022-08-16T18:41:33.647Z,7.30
2022-08-16T18:44:24.709Z,7.03
2022-08-16T18:46:51.554Z,6.95
2022-08-16T18:49:20.110Z,7.10
2022-08-16T18:51:48.262Z,7.38
2022-08-16T18:54:18.946Z,7.35
2022-08-16T18:56:56.247Z,7.10
2022-08-16T18:59:28.767Z,7.18
2022-08-16T19:01:59.976Z,7.45
2022-08-16T19:04:55.707Z,6.50
2022-08-16T19:07:21.892Z,7.43
2022-08-16T19:09:50.674Z,7.50
2022-08-16T19:12:38.071Z,7.53
2022-08-16T19:15:14.284Z,7.63
2022-08-16T19:17:44.386Z,7.55
2022-08-16T19:20:14.895Z,7.53
2022-08-16T19:25:48.653Z,7.75
2022-08-16T19:28:49.333Z,7.75
2022-08-16T19:31:12.798Z,7.95
2022-08-16T19:33:42.300Z,8.45
2022-08-16T19:36:32.462Z,9.25
2022-08-16T19:39:06.202Z,9.23
2022-08-16T19:41:35.980Z,9.68
2022-08-16T19:44:05.310Z,10.63
2022-08-16T19:46:35.593Z,10.80
2022-08-16T19:49:04.762Z,10.90
2022-08-16T19:51:32.932Z,10.95
2022-08-16T19:54:01.014Z,11.38
2022-08-16T19:56:29.092Z,10.90
2022-08-16T20:01:46.715Z,11.27
2022-08-16T20:04:14.765Z,12.38
2022-08-16T20:06:43.293Z,12.60
2022-08-16T20:09:15.357Z,13.18
2022-08-16T20:11:47.148Z,13.77
2022-08-16T20:14:24.129Z,14.05
2022-08-16T20:16:57.178Z,14.20
2022-08-16T20:19:27.400Z,15.18
2022-08-16T20:21:57.283Z,15.35
2022-08-16T20:24:35.577Z,16.20
2022-08-16T20:27:06.495Z,16.65
2022-08-16T20:29:35.456Z,17.80
2022-08-16T20:32:06.753Z,16.27
2022-08-16T20:34:35.092Z,15.90
2022-08-16T20:37:03.113Z,15.60
2022-08-16T20:39:31.283Z,16.25
2022-08-16T20:42:02.893Z,17.42
2022-08-16T20:44:30.925Z,18.65
2022-08-16T20:46:58.932Z,17.30
2022-08-16T20:49:30.059Z,18.52
2022-08-16T20:51:59.782Z,18.70
2022-08-16T20:54:30.891Z,17.13
2022-08-16T20:56:58.938Z,17.38
2022-08-16T20:59:26.931Z,18.25
2022-08-16T21:01:56.818Z,18.38
2022-08-16T21:04:28.900Z,19.83
2022-08-16T21:06:58.443Z,19.38
2022-08-16T21:09:29.048Z,19.27
2022-08-16T21:12:04.742Z,19.00
2022-08-16T21:14:35.003Z,19.95
2022-08-16T21:17:03.964Z,20.30
2022-08-16T21:19:35.180Z,19.75
2022-08-16T21:22:12.566Z,20.10
2022-08-16T21:24:44.316Z,20.38
2022-08-16T21:27:19.163Z,18.85
2022-08-16T21:29:51.871Z,19.90
2022-08-16T21:32:35.288Z,18.25
2022-08-16T21:35:08.990Z,20.10
2022-08-16T21:37:37.209Z,19.88
2022-08-16T21:40:10.856Z,18.85
2022-08-16T21:42:47.360Z,18.98
2022-08-16T21:45:15.673Z,19.65
2022-08-16T21:47:44.609Z,19.80
2022-08-16T21:50:15.290Z,18.05
2022-08-16T21:52:43.322Z,18.77
2022-08-16T21:55:11.482Z,19.63
2022-08-16T21:57:39.664Z,19.80
2022-08-16T22:00:12.860Z,19.92
2022-08-16T22:02:41.805Z,19.27
2022-08-16T22:05:10.272Z,20.85
2022-08-16T22:07:39.707Z,19.60
2022-08-16T22:11:06.843Z,21.25
2022-08-16T22:12:57.647Z,20.63
2022-08-16T22:15:26.447Z,20.15
2022-08-16T22:17:56.188Z,21.52
2022-08-16T22:20:25.907Z,20.75
2022-08-16T22:23:06.249Z,21.13
2022-08-16T22:25:34.564Z,21.13
2022-08-16T22:28:02.694Z,20.33
2022-08-16T22:30:30.682Z,19.60
2022-08-16T22:32:58.847Z,20.02
2022-08-16T22:35:27.042Z,19.02
2022-08-16T22:38:50.406Z,19.75
2022-08-16T22:40:47.961Z,20.27
2022-08-16T22:43:18.619Z,21.60
2022-08-16T22:45:46.615Z,19.27
2022-08-16T22:48:16.455Z,19.98
2022-08-16T22:50:44.880Z,21.55
2022-08-16T22:53:15.691Z,20.98
2022-08-16T22:55:43.720Z,20.10
2022-08-16T22:58:13.938Z,20.52
2022-08-16T23:00:43.876Z,20.75
2022-08-16T23:03:38.131Z,21.90
2022-08-16T23:06:07.796Z,21.83
2022-08-16T23:08:40.883Z,20.40
2022-08-16T23:11:12.211Z,21.48
2022-08-16T23:13:52.459Z,21.10
2022-08-16T23:16:30.860Z,20.83
2022-08-16T23:19:02.150Z,20.65
2022-08-16T23:21:30.243Z,20.92
2022-08-16T23:23:59.997Z,19.05
2022-08-16T23:26:44.976Z,19.60
2022-08-16T23:29:22.439Z,20.10
2022-08-16T23:31:56.843Z,19.88
2022-08-16T23:34:29.336Z,19.50
2022-08-16T23:37:02.048Z,19.88
2022-08-16T23:39:31.978Z,20.48
2022-08-16T23:42:00.757Z,20.55
2022-08-16T23:44:44.233Z,20.45
2022-08-16T23:47:16.945Z,19.77
2022-08-16T23:50:00.316Z,21.02
2022-08-16T23:52:42.204Z,20.85
2022-08-16T23:55:22.511Z,21.00
2022-08-16T23:57:50.913Z,21.25
